Time;durP1;ratioP1;P1;durP2;ratioP2;P2;SDS_P1;SDS_P2;PMS_P1;PMS_P2;Temp;Humidity;BMP_temperature;BMP_pressure;BME280_temperature;BME280_humidity;BME280_pressure;Samples;Min_cycle;Max_cycle;Signal;HPM_P1;HPM_P2
2022/01/29 00:01:49;;;;;;;11.65;4.38;;;5.70;99.90;;;;;;5022397;28;20025;-66
2022/01/29 00:04:16;;;;;;;8.98;4.38;;;5.70;99.90;;;;;;5024721;28;20037;-66
2022/01/29 00:06:43;;;;;;;1.50;1.25;;;5.70;99.90;;;;;;5027667;28;20025;-66
2022/01/29 00:09:13;;;;;;;7.38;3.50;;;5.70;99.90;;;;;;5021587;28;20052;-66
2022/01/29 00:11:39;;;;;;;3.95;2.38;;;5.70;99.90;;;;;;5021587;28;20056;-66
2022/01/29 00:14:06;;;;;;;16.38;5.70;;;5.80;99.90;;;;;;5025843;28;20025;-66
2022/01/29 00:16:32;;;;;;;10.63;3.53;;;5.80;99.90;;;;;;5022811;28;20042;-66
2022/01/29 00:18:58;;;;;;;8.27;4.25;;;5.80;99.90;;;;;;5025787;28;20026;-65
2022/01/29 00:21:23;;;;;;;10.48;4.88;;;5.80;99.90;;;;;;5024397;28;20098;-66
2022/01/29 00:23:49;;;;;;;9.93;3.97;;;5.80;99.90;;;;;;5026309;28;20933;-66
2022/01/29 00:26:16;;;;;;;4.97;2.35;;;5.80;99.90;;;;;;5026452;28;20038;-66
2022/01/29 00:28:42;;;;;;;6.70;2.80;;;5.80;99.90;;;;;;5026409;28;20017;-65
2022/01/29 00:31:10;;;;;;;5.97;3.33;;;5.80;99.90;;;;;;5024515;28;20040;-66
2022/01/29 00:33:37;;;;;;;5.50;2.20;;;5.90;99.90;;;;;;5025518;28;20045;-66
2022/01/29 00:36:03;;;;;;;7.82;2.60;;;5.90;99.90;;;;;;5021864;28;20025;-66
2022/01/29 00:38:28;;;;;;;7.85;2.15;;;5.90;99.90;;;;;;5025184;28;20032;-66
2022/01/29 00:40:54;;;;;;;5.53;2.78;;;5.90;99.90;;;;;;5029897;28;20105;-66
2022/01/29 00:43:20;;;;;;;8.80;3.60;;;5.80;99.90;;;;;;5027711;28;20036;-66
2022/01/29 00:45:45;;;;;;;11.48;5.80;;;5.90;99.90;;;;;;5028324;28;20037;-66
2022/01/29 00:48:11;;;;;;;6.22;2.90;;;5.90;99.90;;;;;;5026341;28;20523;-65
2022/01/29 00:50:37;;;;;;;9.68;4.32;;;5.90;99.90;;;;;;5027193;28;20402;-65
2022/01/29 00:53:03;;;;;;;5.65;2.80;;;5.90;99.90;;;;;;5026427;28;20078;-66
2022/01/29 00:55:28;;;;;;;11.02;4.78;;;5.90;99.90;;;;;;5025244;28;20474;-66
2022/01/29 00:57:54;;;;;;;7.18;3.65;;;5.90;99.90;;;;;;5027495;28;20080;-66
2022/01/29 01:00:19;;;;;;;8.73;3.65;;;5.90;99.90;;;;;;5028409;28;20025;-66
2022/01/29 01:02:45;;;;;;;16.80;7.75;;;5.80;99.90;;;;;;5027465;28;20029;-66
2022/01/29 01:05:11;;;;;;;14.68;6.20;;;5.90;99.90;;;;;;5023876;28;20171;-65
2022/01/29 01:07:38;;;;;;;7.47;3.63;;;5.80;99.90;;;;;;5030103;28;20086;-65
2022/01/29 01:10:08;;;;;;;12.38;4.80;;;5.80;99.90;;;;;;5027751;28;20501;-66
2022/01/29 01:12:34;;;;;;;7.47;3.00;;;5.80;99.90;;;;;;5026411;28;20032;-66
2022/01/29 01:15:00;;;;;;;10.75;3.53;;;5.80;99.90;;;;;;5025193;28;20516;-66
2022/01/29 01:17:26;;;;;;;6.70;2.53;;;5.80;99.90;;;;;;5027277;28;20021;-66
2022/01/29 01:19:51;;;;;;;10.38;4.45;;;5.80;99.90;;;;;;5027036;28;20109;-66
2022/01/29 01:22:17;;;;;;;17.60;6.00;;;5.80;99.90;;;;;;5029695;28;20543;-66
2022/01/29 01:24:43;;;;;;;4.43;2.85;;;5.80;99.90;;;;;;5027885;28;20033;-66
2022/01/29 01:27:09;;;;;;;8.88;3.67;;;5.80;99.90;;;;;;5028872;28;20398;-66
2022/01/29 01:29:34;;;;;;;13.48;4.75;;;5.90;99.90;;;;;;5026912;28;20026;-66
2022/01/29 01:32:00;;;;;;;11.30;4.63;;;5.80;99.90;;;;;;5024319;28;20176;-66
2022/01/29 01:34:30;;;;;;;5.68;1.98;;;5.80;99.90;;;;;;5023892;28;20069;-66
2022/01/29 01:37:01;;;;;;;13.32;5.38;;;5.90;99.90;;;;;;5024840;28;20501;-66
2022/01/29 01:39:31;;;;;;;4.93;3.03;;;5.90;99.90;;;;;;5023322;28;20167;-66
2022/01/29 01:42:07;;;;;;;15.35;4.13;;;5.90;99.90;;;;;;5022808;28;20017;-66
2022/01/29 01:44:34;;;;;;;13.68;5.22;;;5.90;99.90;;;;;;5020301;28;20045;-66
2022/01/29 01:46:59;;;;;;;5.57;3.00;;;5.90;99.90;;;;;;5026623;28;20390;-66
2022/01/29 01:49:25;;;;;;;17.63;5.88;;;5.90;99.90;;;;;;5026576;28;20029;-66
2022/01/29 01:51:50;;;;;;;11.30;3.75;;;5.90;99.90;;;;;;5029389;28;20100;-66
2022/01/29 01:54:17;;;;;;;12.35;6.32;;;5.90;99.90;;;;;;5027259;28;20580;-66
2022/01/29 01:56:42;;;;;;;7.28;3.47;;;5.90;99.90;;;;;;5025169;28;20029;-66
2022/01/29 01:59:08;;;;;;;9.77;4.10;;;5.80;99.90;;;;;;5026022;28;20026;-65
2022/01/29 02:01:33;;;;;;;9.27;3.05;;;5.80;99.90;;;;;;5020940;28;20112;-65
2022/01/29 02:04:00;;;;;;;10.60;5.53;;;5.80;99.90;;;;;;5023392;28;20033;-66
2022/01/29 02:06:26;;;;;;;12.93;4.93;;;5.90;99.90;;;;;;5027474;28;20029;-66
2022/01/29 02:08:58;;;;;;;19.80;7.88;;;5.90;99.90;;;;;;5022228;28;20093;-65
2022/01/29 02:11:24;;;;;;;5.43;2.80;;;5.90;99.90;;;;;;5026779;28;20028;-65
2022/01/29 02:13:49;;;;;;;15.52;5.70;;;5.90;99.90;;;;;;5026732;28;20029;-66
2022/01/29 02:16:15;;;;;;;15.57;5.28;;;5.90;99.90;;;;;;5027471;28;20104;-66
2022/01/29 02:18:40;;;;;;;8.48;3.65;;;6.00;99.90;;;;;;5026034;28;20037;-66
2022/01/29 02:21:06;;;;;;;12.77;5.93;;;5.90;99.90;;;;;;5023774;28;20053;-66
2022/01/29 02:23:33;;;;;;;14.63;6.15;;;6.00;99.90;;;;;;5025705;28;20501;-66
2022/01/29 02:25:59;;;;;;;12.77;3.58;;;6.00;99.90;;;;;;5027570;28;20025;-66
2022/01/29 02:28:25;;;;;;;9.32;3.22;;;6.00;99.90;;;;;;5023059;28;20034;-66
2022/01/29 02:31:02;;;;;;;13.00;4.45;;;6.00;99.90;;;;;;5024247;28;20029;-66
2022/01/29 02:33:33;;;;;;;13.88;4.28;;;6.00;99.90;;;;;;5021390;28;20053;-66
2022/01/29 02:35:59;;;;;;;;;;;6.00;99.90;;;;;;5026973;28;20100;-65
2022/01/29 02:38:26;;;;;;;8.20;2.38;;;6.00;99.90;;;;;;5020626;28;19925;-66
2022/01/29 02:40:56;;;;;;;16.58;8.43;;;6.00;99.90;;;;;;5025460;28;20512;-66
2022/01/29 02:43:30;;;;;;;8.40;3.67;;;6.00;99.90;;;;;;5022432;28;20047;-66
2022/01/29 02:45:56;;;;;;;13.02;5.45;;;6.00;99.90;;;;;;5023273;28;20034;-66
2022/01/29 02:48:23;;;;;;;11.13;5.40;;;5.90;99.90;;;;;;5025548;28;20029;-66
2022/01/29 02:50:50;;;;;;;23.73;8.35;;;5.90;99.90;;;;;;5024321;28;20032;-66
2022/01/29 02:53:16;;;;;;;11.40;4.53;;;5.90;99.90;;;;;;5022170;28;20025;-66
2022/01/29 02:55:42;;;;;;;22.25;8.57;;;5.90;99.90;;;;;;5023092;28;20178;-66
2022/01/29 02:58:08;;;;;;;11.82;3.83;;;5.90;99.90;;;;;;5016505;28;20529;-66
2022/01/29 03:00:34;;;;;;;9.57;5.10;;;5.90;99.90;;;;;;5023156;28;20167;-66
2022/01/29 03:02:59;;;;;;;11.93;3.97;;;5.90;99.90;;;;;;5024729;28;20029;-66
2022/01/29 03:05:25;;;;;;;17.30;4.93;;;5.90;99.90;;;;;;5018960;28;20034;-66
2022/01/29 03:07:51;;;;;;;17.42;5.72;;;5.90;99.90;;;;;;5022731;28;20115;-66
2022/01/29 03:10:17;;;;;;;6.28;2.90;;;6.00;99.90;;;;;;5023533;28;20147;-66
2022/01/29 03:12:43;;;;;;;26.50;5.55;;;6.00;99.90;;;;;;5018873;28;20052;-66
2022/01/29 03:15:11;;;;;;;8.38;3.78;;;5.90;99.90;;;;;;5026154;28;20026;-66
2022/01/29 03:17:36;;;;;;;12.00;3.10;;;5.90;99.90;;;;;;5025201;28;20384;-66
2022/01/29 03:20:03;;;;;;;31.88;4.72;;;5.80;99.90;;;;;;5021706;28;20017;-66
2022/01/29 03:22:28;;;;;;;11.10;4.07;;;5.90;99.90;;;;;;5021003;28;20029;-66
2022/01/29 03:24:54;;;;;;;27.50;4.88;;;5.90;99.90;;;;;;5020805;28;20026;-66
2022/01/29 03:27:19;;;;;;;8.75;3.58;;;5.90;99.90;;;;;;5026040;28;20389;-66
2022/01/29 03:29:45;;;;;;;6.85;3.03;;;5.90;99.90;;;;;;5030028;28;20104;-66
2022/01/29 03:32:11;;;;;;;6.28;3.58;;;5.90;99.90;;;;;;5029415;28;20037;-65
2022/01/29 03:34:37;;;;;;;20.27;7.65;;;5.90;99.90;;;;;;5029710;28;20041;-66
2022/01/29 03:37:03;;;;;;;20.17;8.27;;;5.90;99.90;;;;;;5028764;28;20041;-65
2022/01/29 03:39:30;;;;;;;5.80;2.92;;;5.90;99.90;;;;;;5026750;28;20028;-65
2022/01/29 03:42:02;;;;;;;10.00;3.80;;;5.90;99.90;;;;;;5029856;28;20045;-65
2022/01/29 03:44:28;;;;;;;15.85;6.68;;;5.90;99.90;;;;;;5030202;28;20517;-65
2022/01/29 03:46:53;;;;;;;16.30;7.68;;;5.80;99.90;;;;;;5029788;28;20049;-65
2022/01/29 03:49:19;;;;;;;9.45;3.97;;;5.90;99.90;;;;;;5026526;28;20068;-65
2022/01/29 03:51:44;;;;;;;6.60;3.13;;;5.90;99.90;;;;;;5030162;28;20071;-65
2022/01/29 03:54:10;;;;;;;11.60;3.95;;;5.90;99.90;;;;;;5028601;28;20029;-65
2022/01/29 03:56:36;;;;;;;12.40;3.05;;;5.90;99.90;;;;;;5029693;28;20482;-66
2022/01/29 03:59:01;;;;;;;11.00;4.45;;;5.90;99.90;;;;;;5028467;28;20048;-66
2022/01/29 04:01:27;;;;;;;13.30;3.92;;;6.00;99.90;;;;;;5028695;28;20061;-66
2022/01/29 04:03:52;;;;;;;15.15;5.07;;;6.00;99.90;;;;;;5029655;28;20026;-66
2022/01/29 04:06:18;;;;;;;5.88;2.88;;;6.00;99.90;;;;;;5029190;28;20037;-66
2022/01/29 04:08:44;;;;;;;12.52;5.93;;;6.00;99.90;;;;;;5022983;28;20108;-66
2022/01/29 04:11:12;;;;;;;12.10;4.88;;;6.10;99.90;;;;;;5032411;28;20026;-66
2022/01/29 04:13:44;;;;;;;9.57;5.18;;;6.00;99.90;;;;;;5029562;28;20025;-66
2022/01/29 04:16:11;;;;;;;3.30;1.75;;;6.00;99.90;;;;;;5032923;28;20497;-65
2022/01/29 04:18:37;;;;;;;5.70;3.25;;;6.00;99.90;;;;;;5033352;28;20481;-66
2022/01/29 04:21:04;;;;;;;3.47;1.40;;;5.90;99.90;;;;;;5032934;28;20025;-65
2022/01/29 04:23:30;;;;;;;4.82;2.90;;;5.90;99.90;;;;;;5033479;28;20040;-65
2022/01/29 04:25:56;;;;;;;11.00;3.45;;;6.00;99.90;;;;;;5033034;28;20029;-66
2022/01/29 04:28:24;;;;;;;7.70;3.50;;;6.00;99.90;;;;;;5032730;28;20378;-66
2022/01/29 04:30:56;;;;;;;9.25;3.38;;;5.90;99.90;;;;;;5031308;28;20025;-66
2022/01/29 04:35:48;;;;;;;8.30;3.22;;;5.90;99.90;;;;;;5033192;28;20690;-66
2022/01/29 04:38:13;;;;;;;9.77;3.78;;;5.90;99.90;;;;;;5029173;28;20028;-65
2022/01/29 04:40:39;;;;;;;8.27;2.40;;;5.90;99.90;;;;;;5032741;28;20080;-65
2022/01/29 04:43:05;;;;;;;12.85;5.57;;;5.90;99.90;;;;;;5031914;28;20023;-65
2022/01/29 04:45:32;;;;;;;10.60;3.97;;;5.90;99.90;;;;;;5033216;28;20037;-65
2022/01/29 04:47:57;;;;;;;5.45;2.75;;;5.90;99.90;;;;;;5033540;28;20037;-65
2022/01/29 04:50:23;;;;;;;7.07;3.28;;;5.90;99.90;;;;;;5032733;28;20104;-65
2022/01/29 04:52:49;;;;;;;12.98;4.88;;;5.90;99.90;;;;;;5032473;28;20100;-65
2022/01/29 04:55:15;;;;;;;7.28;3.13;;;5.90;99.90;;;;;;5031531;28;20025;-66
2022/01/29 04:57:41;;;;;;;2.15;1.40;;;5.80;99.90;;;;;;5029173;28;20022;-66
2022/01/29 05:00:19;;;;;;;9.25;3.63;;;5.90;99.90;;;;;;5030516;28;20060;-65
2022/01/29 05:02:45;;;;;;;24.60;5.13;;;5.80;99.90;;;;;;5030393;28;20532;-66
2022/01/29 05:05:11;;;;;;;5.97;2.60;;;5.90;99.90;;;;;;5032595;28;20018;-65
2022/01/29 05:07:37;;;;;;;10.18;4.45;;;5.90;99.90;;;;;;5032672;28;20033;-66
2022/01/29 05:10:03;;;;;;;8.07;2.92;;;5.90;99.90;;;;;;5030799;28;20385;-65
2022/01/29 05:12:30;;;;;;;10.65;4.55;;;5.90;99.90;;;;;;5030611;28;20026;-65
2022/01/29 05:28:05;;;;;;;6.50;2.08;;;5.90;99.90;;;;;;5028490;28;20536;-65
2022/01/29 05:30:31;;;;;;;3.70;1.75;;;5.90;99.90;;;;;;5030382;28;20082;-65
2022/01/29 05:32:57;;;;;;;7.25;2.97;;;5.90;99.90;;;;;;5031704;28;20038;-65
2022/01/29 05:35:22;;;;;;;2.25;1.50;;;6.00;99.90;;;;;;5031739;28;20021;-65
2022/01/29 05:37:50;;;;;;;4.47;2.53;;;6.00;99.90;;;;;;5029747;28;20031;-65
2022/01/29 05:40:16;;;;;;;5.88;2.00;;;6.00;99.90;;;;;;5030298;28;20029;-65
2022/01/29 05:42:42;;;;;;;5.03;1.90;;;6.00;99.90;;;;;;5031725;28;20026;-65
2022/01/29 05:45:08;;;;;;;5.32;1.83;;;6.00;99.90;;;;;;5028114;28;20092;-66
2022/01/29 05:47:35;;;;;;;3.22;2.00;;;6.00;99.90;;;;;;5029453;28;20034;-65
2022/01/29 05:50:01;;;;;;;8.35;3.88;;;6.10;99.90;;;;;;5033493;28;20573;-65
2022/01/29 05:52:27;;;;;;;5.72;1.88;;;6.10;99.90;;;;;;5031167;28;20021;-66
2022/01/29 05:54:53;;;;;;;5.53;2.42;;;6.10;99.90;;;;;;5031588;28;20036;-66
2022/01/29 05:57:19;;;;;;;7.30;2.90;;;6.10;99.90;;;;;;5030873;28;20017;-66
2022/01/29 05:59:44;;;;;;;7.18;1.85;;;6.20;99.90;;;;;;5027744;28;20120;-66
2022/01/29 06:02:10;;;;;;;2.10;1.48;;;6.30;99.90;;;;;;5027047;28;20176;-67
2022/01/29 06:04:35;;;;;;;6.55;2.60;;;6.30;99.90;;;;;;5024459;28;20030;-66
2022/01/29 06:07:01;;;;;;;3.92;2.28;;;6.30;99.90;;;;;;5014827;28;20101;-66
2022/01/29 06:09:27;;;;;;;5.93;2.28;;;6.30;99.90;;;;;;5025422;28;20025;-66
2022/01/29 06:11:52;;;;;;;4.75;2.40;;;6.30;99.90;;;;;;5028849;28;20100;-66
2022/01/29 06:14:18;;;;;;;7.50;3.25;;;6.30;99.90;;;;;;5029041;28;20030;-66
2022/01/29 06:16:43;;;;;;;7.20;3.40;;;6.40;99.90;;;;;;5028768;28;20048;-66
2022/01/29 06:19:09;;;;;;;5.10;2.70;;;6.40;99.90;;;;;;5027199;28;20041;-66
2022/01/29 06:21:35;;;;;;;4.60;2.33;;;6.40;99.90;;;;;;5029147;28;20089;-66
2022/01/29 06:24:02;;;;;;;8.80;3.75;;;6.40;99.90;;;;;;5029573;28;20517;-66
2022/01/29 06:26:28;;;;;;;8.88;2.70;;;;;;;;;;5026023;28;20031;-66
2022/01/29 06:28:53;;;;;;;6.30;2.50;;;6.50;99.90;;;;;;5020627;28;20128;-65
2022/01/29 06:31:19;;;;;;;4.55;2.17;;;6.50;99.90;;;;;;5029138;28;20044;-66
2022/01/29 06:33:45;;;;;;;7.03;2.22;;;6.40;99.90;;;;;;5027413;28;20053;-66
2022/01/29 06:36:11;;;;;;;4.45;2.55;;;6.40;99.90;;;;;;5026075;28;20017;-66
2022/01/29 06:38:37;;;;;;;4.03;1.83;;;6.40;99.90;;;;;;5027579;28;20044;-66
2022/01/29 06:41:03;;;;;;;8.77;4.25;;;6.50;99.90;;;;;;5026415;28;20054;-66
2022/01/29 06:43:30;;;;;;;10.02;2.72;;;6.40;99.90;;;;;;5036580;28;20078;-66
2022/01/29 06:45:55;;;;;;;17.83;8.98;;;6.40;99.90;;;;;;5025965;28;20076;-65
2022/01/29 06:48:22;;;;;;;11.63;3.63;;;6.50;99.90;;;;;;5027753;28;20310;-66
2022/01/29 06:50:47;;;;;;;7.95;3.80;;;6.50;99.90;;;;;;5027152;28;20026;-66
2022/01/29 06:53:13;;;;;;;13.98;4.97;;;6.40;99.90;;;;;;5028102;28;20026;-66
2022/01/29 06:55:39;;;;;;;12.50;3.65;;;6.50;99.90;;;;;;5028358;28;20455;-66
2022/01/29 06:58:04;;;;;;;5.80;2.17;;;6.50;99.90;;;;;;5032180;28;20029;-66
2022/01/29 07:00:30;;;;;;;8.50;3.20;;;6.50;99.90;;;;;;5027343;28;20027;-66
2022/01/29 07:02:56;;;;;;;10.13;3.20;;;6.50;99.90;;;;;;5026805;28;20025;-66
2022/01/29 07:05:22;;;;;;;4.53;1.83;;;6.50;99.90;;;;;;5025959;28;20029;-66
2022/01/29 07:07:47;;;;;;;7.75;2.85;;;6.50;99.90;;;;;;5024761;28;20104;-66
2022/01/29 07:10:13;;;;;;;2.58;1.88;;;6.50;99.90;;;;;;5032863;28;20017;-66
2022/01/29 07:12:40;;;;;;;7.55;4.07;;;6.60;99.90;;;;;;5033470;28;20032;-66
2022/01/29 07:15:07;;;;;;;7.70;2.67;;;6.60;99.90;;;;;;5027099;28;20113;-66
2022/01/29 07:17:33;;;;;;;11.57;4.25;;;6.60;99.90;;;;;;5027124;28;20048;-66
2022/01/29 07:19:59;;;;;;;5.93;2.72;;;6.60;99.90;;;;;;5026163;28;20374;-66
2022/01/29 07:22:25;;;;;;;9.73;2.83;;;6.70;99.90;;;;;;5024866;28;20010;-66
2022/01/29 07:24:51;;;;;;;12.52;4.88;;;6.70;99.90;;;;;;5027288;28;20029;-66
2022/01/29 07:27:17;;;;;;;7.03;2.25;;;6.70;99.90;;;;;;5028733;28;20123;-66
2022/01/29 07:29:42;;;;;;;14.77;3.25;;;6.70;99.90;;;;;;5027997;28;20049;-66
2022/01/29 07:32:09;;;;;;;11.02;4.25;;;6.80;99.90;;;;;;5030928;28;20333;-66
2022/01/29 07:34:34;;;;;;;11.23;2.83;;;6.70;99.90;;;;;;5031171;28;20569;-66
2022/01/29 07:37:00;;;;;;;9.23;3.75;;;6.80;99.90;;;;;;5033492;28;20156;-66
2022/01/29 07:39:28;;;;;;;12.75;4.05;;;6.80;99.90;;;;;;5033442;28;20449;-66
2022/01/29 07:41:54;;;;;;;9.70;4.35;;;6.80;99.90;;;;;;5033213;28;20031;-66
2022/01/29 07:44:20;;;;;;;14.25;6.43;;;6.80;99.90;;;;;;5031765;28;20060;-66
2022/01/29 07:46:46;;;;;;;10.43;5.85;;;6.90;99.90;;;;;;5032941;28;20454;-66
2022/01/29 07:49:12;;;;;;;6.05;3.05;;;6.90;99.90;;;;;;5029855;28;20036;-66
2022/01/29 07:51:39;;;;;;;10.85;4.15;;;6.90;99.90;;;;;;5034617;28;20357;-66
2022/01/29 07:54:05;;;;;;;6.80;3.05;;;6.90;99.90;;;;;;5028546;28;20091;-66
2022/01/29 07:56:30;;;;;;;10.55;4.97;;;7.00;99.90;;;;;;5031409;28;20061;-66
2022/01/29 07:58:56;;;;;;;8.48;4.25;;;6.90;99.90;;;;;;5035536;28;20064;-66
2022/01/29 08:01:22;;;;;;;20.17;6.90;;;7.00;99.90;;;;;;5035417;28;20060;-66
2022/01/29 08:03:49;;;;;;;14.10;5.00;;;7.00;99.90;;;;;;5033507;28;20072;-66
2022/01/29 08:06:16;;;;;;;10.57;3.97;;;7.00;99.90;;;;;;5032577;28;20021;-66
2022/01/29 08:08:42;;;;;;;8.48;3.70;;;7.00;99.90;;;;;;5033732;28;20049;-66
2022/01/29 08:11:09;;;;;;;17.48;6.00;;;7.10;99.90;;;;;;5033537;28;20038;-66
2022/01/29 08:13:35;;;;;;;8.27;2.85;;;7.10;99.90;;;;;;5037027;28;20051;-66
2022/01/29 08:16:01;;;;;;;9.10;2.42;;;7.10;99.90;;;;;;5031130;28;20017;-66
2022/01/29 08:18:27;;;;;;;5.22;2.60;;;7.10;99.90;;;;;;5036798;28;20033;-66
2022/01/29 08:20:53;;;;;;;13.10;4.40;;;7.10;99.90;;;;;;5039900;28;20040;-66
2022/01/29 08:23:18;;;;;;;11.50;5.75;;;7.10;99.90;;;;;;5039256;28;20237;-66
2022/01/29 08:25:44;;;;;;;6.35;3.13;;;7.10;99.90;;;;;;5035886;28;20032;-66
2022/01/29 08:28:10;;;;;;;15.48;3.60;;;7.10;99.90;;;;;;5032792;28;20029;-66
2022/01/29 08:30:36;;;;;;;9.05;3.67;;;7.10;99.90;;;;;;5031440;28;20048;-66
2022/01/29 08:33:02;;;;;;;13.88;5.22;;;7.10;99.90;;;;;;5031531;28;20417;-66
2022/01/29 08:35:27;;;;;;;16.58;4.88;;;7.10;99.90;;;;;;5037055;28;20050;-66
2022/01/29 08:37:54;;;;;;;12.70;4.70;;;7.20;99.90;;;;;;5037071;28;20048;-66
2022/01/29 08:40:20;;;;;;;11.90;4.13;;;7.20;99.90;;;;;;5035439;28;20385;-66
2022/01/29 08:42:46;;;;;;;15.63;3.67;;;7.20;99.90;;;;;;5037826;28;20032;-66
2022/01/29 08:45:15;;;;;;;19.38;7.15;;;7.20;99.90;;;;;;5035461;28;20119;-66
2022/01/29 08:47:42;;;;;;;6.55;3.72;;;7.30;99.90;;;;;;5033536;28;20048;-66
2022/01/29 08:50:09;;;;;;;8.07;2.92;;;7.30;99.90;;;;;;5036021;28;20036;-66
2022/01/29 08:52:36;;;;;;;12.07;5.25;;;7.30;99.90;;;;;;5029127;28;20029;-66
2022/01/29 08:55:03;;;;;;;13.07;5.50;;;7.30;99.90;;;;;;5036211;28;20047;-66
2022/01/29 08:57:29;;;;;;;11.40;3.47;;;7.30;99.90;;;;;;5037349;28;20045;-66
2022/01/29 08:59:55;;;;;;;11.23;3.97;;;7.40;99.90;;;;;;5033822;28;20119;-66
2022/01/29 09:02:20;;;;;;;9.23;2.97;;;7.30;99.90;;;;;;5037746;28;20047;-66
2022/01/29 09:04:46;;;;;;;11.02;5.35;;;7.40;99.90;;;;;;5041507;28;20035;-66
2022/01/29 09:07:12;;;;;;;12.07;5.40;;;7.40;99.90;;;;;;5041518;28;20045;-66
2022/01/29 09:09:40;;;;;;;4.38;2.47;;;7.40;99.90;;;;;;5036466;28;20021;-66
2022/01/29 09:12:07;;;;;;;8.07;4.07;;;7.50;99.90;;;;;;5038145;28;20029;-66
2022/01/29 09:14:32;;;;;;;13.43;3.92;;;7.50;99.90;;;;;;5033418;28;20022;-66
2022/01/29 09:16:58;;;;;;;7.60;3.97;;;7.50;99.90;;;;;;5031775;28;20037;-66
2022/01/29 09:19:24;;;;;;;5.88;2.35;;;7.50;99.90;;;;;;5032637;28;20531;-66
2022/01/29 09:21:49;;;;;;;11.30;3.85;;;7.50;99.90;;;;;;5033500;28;20033;-66
2022/01/29 09:24:15;;;;;;;8.88;4.28;;;7.50;99.90;;;;;;5031904;28;20025;-66
2022/01/29 09:26:40;;;;;;;9.05;3.90;;;7.60;99.90;;;;;;5035506;28;20413;-66
2022/01/29 09:29:06;;;;;;;7.82;3.72;;;7.50;99.90;;;;;;5033317;28;20017;-66
2022/01/29 09:31:32;;;;;;;3.70;1.95;;;7.50;99.90;;;;;;5033481;28;20029;-66
2022/01/29 09:33:58;;;;;;;6.40;2.88;;;7.60;99.90;;;;;;5027498;28;20033;-65
2022/01/29 09:36:24;;;;;;;8.75;3.95;;;7.60;99.90;;;;;;5033336;28;20017;-65
2022/01/29 09:38:49;;;;;;;9.30;4.13;;;7.60;99.90;;;;;;5033214;28;20075;-65
2022/01/29 09:41:18;;;;;;;7.63;3.22;;;7.60;99.90;;;;;;5034030;28;20048;-65
2022/01/29 09:43:46;;;;;;;6.10;2.20;;;7.70;99.90;;;;;;5036241;28;20571;-65
2022/01/29 09:46:15;;;;;;;11.98;5.88;;;7.70;99.90;;;;;;5032429;28;20107;-66
2022/01/29 09:48:43;;;;;;;7.35;3.40;;;7.70;99.90;;;;;;5037146;28;20025;-66
2022/01/29 09:51:12;;;;;;;6.18;2.67;;;7.70;99.90;;;;;;5031012;28;20106;-66
2022/01/29 09:53:43;;;;;;;8.97;3.10;;;7.70;99.90;;;;;;5033856;28;20563;-66
2022/01/29 09:56:12;;;;;;;;;;;7.80;99.90;;;;;;5034715;28;20759;-66
2022/01/29 09:58:39;;;;;;;13.30;4.15;;;7.80;99.90;;;;;;5035547;28;19909;-66
2022/01/29 10:01:05;;;;;;;12.88;5.43;;;7.80;99.90;;;;;;5032210;28;20022;-66
2022/01/29 10:03:31;;;;;;;10.52;4.97;;;7.90;99.90;;;;;;5030440;28;20489;-66
2022/01/29 10:05:57;;;;;;;3.17;1.73;;;7.90;99.90;;;;;;5031947;28;20030;-66
2022/01/29 10:08:24;;;;;;;5.25;2.78;;;7.90;99.90;;;;;;5031389;28;20017;-66
2022/01/29 10:10:59;;;;;;;7.32;3.28;;;7.90;99.90;;;;;;5033739;28;20036;-66
2022/01/29 10:13:34;;;;;;;12.57;3.63;;;7.90;99.90;;;;;;5030980;28;20109;-66
2022/01/29 10:16:25;;;;;;;2.58;1.85;;;7.90;99.90;;;;;;5036229;28;20112;-66
2022/01/29 10:19:05;;;;;;;11.65;4.47;;;8.00;99.90;;;;;;5032797;28;20025;-66
2022/01/29 10:21:32;;;;;;;;;;;7.90;99.90;;;;;;5033775;28;20028;-66
2022/01/29 10:24:06;;;;;;;5.38;2.63;;;8.00;99.90;;;;;;5032771;28;19912;-66
2022/01/29 10:26:46;;;;;;;3.00;1.45;;;8.10;99.90;;;;;;5038282;28;20028;-66
2022/01/29 10:29:25;;;;;;;8.53;3.03;;;8.10;99.90;;;;;;5032477;28;20490;-66
2022/01/29 10:31:56;;;;;;;6.90;2.47;;;8.20;99.90;;;;;;5030733;28;20687;-67
2022/01/29 10:34:28;;;;;;;9.98;3.95;;;8.20;99.90;;;;;;5035419;28;20029;-66
2022/01/29 10:37:17;;;;;;;10.52;4.10;;;8.30;99.90;;;;;;5036956;28;20026;-67
2022/01/29 10:39:57;;;;;;;5.68;2.45;;;8.30;99.90;;;;;;5031689;28;20052;-66
2022/01/29 10:42:26;;;;;;;12.55;4.05;;;8.20;99.90;;;;;;5033606;28;20021;-66
2022/01/29 10:44:59;;;;;;;8.33;3.10;;;8.30;99.90;;;;;;5033930;28;20021;-66
2022/01/29 10:47:26;;;;;;;14.60;4.03;;;8.30;99.90;;;;;;5029261;28;20018;-66
2022/01/29 10:49:59;;;;;;;6.95;3.58;;;8.30;99.90;;;;;;5029211;28;20509;-66
2022/01/29 10:52:35;;;;;;;8.80;4.80;;;8.30;99.90;;;;;;5032725;28;20479;-66
2022/01/29 10:55:06;;;;;;;3.00;1.98;;;8.30;99.90;;;;;;5028838;28;20104;-66
2022/01/29 10:57:42;;;;;;;6.68;2.90;;;8.40;99.90;;;;;;5034520;28;20025;-66
2022/01/29 11:00:16;;;;;;;10.65;3.38;;;8.40;99.90;;;;;;5032089;28;20021;-66
2022/01/29 11:02:43;;;;;;;6.63;3.03;;;8.50;99.90;;;;;;5026355;28;20036;-66
2022/01/29 11:05:08;;;;;;;11.75;4.45;;;8.50;99.90;;;;;;5027087;28;20441;-66
2022/01/29 11:07:35;;;;;;;9.57;4.22;;;8.50;99.90;;;;;;5025880;28;20049;-66
2022/01/29 11:10:05;;;;;;;10.70;4.55;;;8.40;99.90;;;;;;5025855;28;20503;-66
2022/01/29 11:12:31;;;;;;;11.53;3.13;;;8.30;99.90;;;;;;5027404;28;20060;-67
2022/01/29 11:15:02;;;;;;;7.57;3.53;;;8.30;99.90;;;;;;5025331;28;20280;-67
2022/01/29 11:17:29;;;;;;;6.10;3.08;;;8.30;99.90;;;;;;5026089;28;20025;-67
2022/01/29 11:19:56;;;;;;;4.78;2.63;;;8.30;99.90;;;;;;5027658;28;20136;-67
2022/01/29 11:22:24;;;;;;;8.45;4.68;;;8.20;99.90;;;;;;5029460;28;20163;-68
2022/01/29 11:24:59;;;;;;;12.77;5.30;;;8.20;99.90;;;;;;5027743;28;20021;-67
2022/01/29 11:27:32;;;;;;;8.32;3.35;;;8.30;99.90;;;;;;5027487;28;20482;-67
2022/01/29 11:30:04;;;;;;;7.00;3.75;;;8.30;99.90;;;;;;5036237;28;20100;-67
2022/01/29 11:32:33;;;;;;;5.72;2.40;;;8.30;99.90;;;;;;5030196;28;20048;-67
2022/01/29 11:35:17;;;;;;;6.03;2.28;;;8.30;99.90;;;;;;5028646;28;20095;-67
2022/01/29 11:38:00;;;;;;;7.28;2.80;;;8.40;99.90;;;;;;5030689;28;20441;-67
2022/01/29 11:40:38;;;;;;;11.32;4.13;;;8.40;99.90;;;;;;5027592;28;20025;-67
2022/01/29 11:43:05;;;;;;;7.22;2.85;;;8.40;99.90;;;;;;5029117;28;20089;-67
2022/01/29 11:45:49;;;;;;;5.55;2.65;;;8.40;99.90;;;;;;5031411;28;20025;-67
2022/01/29 11:48:38;;;;;;;4.53;2.10;;;8.40;99.90;;;;;;5024263;28;20029;-67
2022/01/29 11:51:08;;;;;;;5.35;2.47;;;8.50;99.90;;;;;;5028175;28;20790;-67
2022/01/29 11:53:49;;;;;;;2.72;1.27;;;8.40;99.90;;;;;;5033182;28;20076;-67
2022/01/29 11:56:34;;;;;;;5.72;2.88;;;8.50;99.90;;;;;;5030581;28;20021;-67
2022/01/29 11:59:26;;;;;;;6.22;2.28;;;8.50;99.90;;;;;;5037047;28;20083;-67
2022/01/29 12:01:53;;;;;;;7.97;2.83;;;8.60;99.90;;;;;;5029155;28;20111;-67
2022/01/29 12:04:21;;;;;;;4.05;1.98;;;8.60;99.90;;;;;;5027869;28;20029;-67
2022/01/29 12:07:09;;;;;;;10.23;4.38;;;8.60;99.90;;;;;;5026008;28;20041;-67
2022/01/29 12:09:51;;;;;;;5.07;1.85;;;8.60;99.90;;;;;;5021440;28;20531;-67
2022/01/29 12:12:27;;;;;;;5.68;1.85;;;8.60;99.90;;;;;;5034332;28;20013;-67
2022/01/29 12:14:54;;;;;;;4.25;1.90;;;8.60;99.90;;;;;;5024426;28;20075;-67
2022/01/29 12:17:33;;;;;;;4.03;1.60;;;8.70;99.90;;;;;;5027680;28;20017;-67
2022/01/29 12:19:59;;;;;;;5.53;2.38;;;8.80;99.90;;;;;;5024592;28;20072;-67
2022/01/29 12:22:26;;;;;;;3.22;1.63;;;8.80;99.90;;;;;;5027421;28;20093;-67
2022/01/29 12:25:00;;;;;;;10.18;3.28;;;8.80;99.90;;;;;;5026916;28;20080;-67
2022/01/29 12:27:44;;;;;;;5.05;1.77;;;9.00;99.90;;;;;;5029864;28;20029;-67
2022/01/29 12:30:11;;;;;;;5.10;2.17;;;9.00;99.90;;;;;;5030895;28;20527;-67
2022/01/29 12:32:37;;;;;;;3.03;1.33;;;9.10;99.90;;;;;;5035140;28;20527;-67
2022/01/29 12:35:04;;;;;;;6.22;2.70;;;9.10;99.90;;;;;;5034123;28;20037;-67
2022/01/29 12:37:29;;;;;;;5.95;2.28;;;9.10;99.90;;;;;;5029993;28;20025;-67
2022/01/29 12:40:20;;;;;;;2.33;1.30;;;9.10;99.90;;;;;;5033188;28;20036;-67
2022/01/29 12:42:56;;;;;;;4.50;1.30;;;9.20;99.90;;;;;;5030863;28;20031;-67
2022/01/29 12:45:24;;;;;;;4.10;1.92;;;9.20;99.90;;;;;;5033169;28;20029;-67
2022/01/29 12:47:49;;;;;;;2.05;1.02;;;9.20;99.90;;;;;;5030600;28;20482;-67
2022/01/29 12:50:22;;;;;;;5.88;2.70;;;9.30;99.90;;;;;;5031819;28;20024;-67
2022/01/29 12:52:48;;;;;;;3.17;1.70;;;9.30;99.90;;;;;;5027254;28;20639;-67
2022/01/29 12:55:14;;;;;;;5.10;1.75;;;9.30;99.90;;;;;;5029745;28;20095;-67
2022/01/29 12:57:48;;;;;;;2.17;1.23;;;9.30;99.90;;;;;;5033594;28;20060;-67
2022/01/29 13:00:19;;;;;;;1.80;0.98;;;9.30;99.90;;;;;;5029959;28;20021;-67
2022/01/29 13:02:45;;;;;;;3.90;1.70;;;9.30;99.90;;;;;;5029409;28;20077;-67
2022/01/29 13:05:11;;;;;;;3.97;1.60;;;9.30;99.90;;;;;;5029544;28;20519;-67
2022/01/29 13:07:41;;;;;;;8.75;3.05;;;9.30;99.90;;;;;;5035815;28;20029;-67
2022/01/29 13:10:08;;;;;;;4.70;2.15;;;9.30;99.90;;;;;;5030960;28;20104;-67
2022/01/29 13:12:45;;;;;;;7.55;2.65;;;9.40;99.90;;;;;;5029756;28;20021;-67
2022/01/29 13:15:13;;;;;;;1.98;1.17;;;9.40;99.90;;;;;;5029370;28;20018;-67